Time;durP1;ratioP1;P1;durP2;ratioP2;P2;SDS_P1;SDS_P2;PMS_P1;PMS_P2;Temp;Humidity;BMP_temperature;BMP_pressure;BME280_temperature;BME280_humidity;BME280_pressure;Samples;Min_cycle;Max_cycle;Signal;HPM_P1;HPM_P2
2022/05/15 06:47:02;;;;;;;17.98;5.80;;;18.60;99.90;;;;;;5130754;27;20470;-75
2022/05/15 06:49:28;;;;;;;19.23;6.60;;;18.40;99.90;;;;;;5111106;28;20024;-76
2022/05/15 06:51:53;;;;;;;18.08;6.25;;;18.50;99.90;;;;;;5109284;28;20024;-77
2022/05/15 06:54:19;;;;;;;15.77;6.53;;;18.60;99.90;;;;;;5110000;28;20024;-78
2022/05/15 06:59:29;;;;;;;18.88;6.75;;;18.50;99.90;;;;;;5109619;28;20533;-76
2022/05/15 07:01:55;;;;;;;16.13;6.38;;;18.50;99.90;;;;;;5109695;28;20020;-77
2022/05/15 07:04:21;;;;;;;20.13;6.35;;;18.60;99.90;;;;;;5109574;28;20035;-76
2022/05/15 07:06:46;;;;;;;21.60;6.95;;;18.70;99.90;;;;;;5109334;28;20491;-76
2022/05/15 07:09:12;;;;;;;14.73;5.97;;;18.70;99.90;;;;;;5109695;28;20502;-75
2022/05/15 07:11:39;;;;;;;13.15;5.28;;;18.80;99.90;;;;;;5109685;28;20047;-75
2022/05/15 07:14:05;;;;;;;16.80;6.63;;;18.80;99.90;;;;;;5109626;28;20115;-76
2022/05/15 07:16:31;;;;;;;16.10;6.22;;;18.90;99.90;;;;;;5108814;28;20591;-76
2022/05/15 07:18:56;;;;;;;16.50;6.63;;;18.90;99.90;;;;;;5115426;27;20032;-76
2022/05/15 07:21:22;;;;;;;13.63;5.60;;;18.90;99.90;;;;;;5108116;28;20395;-76
2022/05/15 07:23:48;;;;;;;15.13;6.13;;;18.90;99.90;;;;;;5107883;28;20433;-76
2022/05/15 07:26:13;;;;;;;15.00;6.32;;;18.90;99.90;;;;;;5109314;28;20035;-76
2022/05/15 07:28:39;;;;;;;20.00;5.90;;;19.00;99.90;;;;;;5108635;28;20031;-76
2022/05/15 07:31:05;;;;;;;21.90;6.90;;;19.10;99.90;;;;;;5107633;28;20016;-76
2022/05/15 07:33:30;;;;;;;15.25;5.32;;;19.10;99.90;;;;;;5108393;28;20040;-75
2022/05/15 07:35:56;;;;;;;17.20;5.43;;;19.20;99.90;;;;;;5109073;28;20081;-76
2022/05/15 07:38:23;;;;;;;15.65;5.97;;;19.30;99.90;;;;;;5108700;28;20107;-76
2022/05/15 07:40:49;;;;;;;12.90;5.15;;;19.40;99.90;;;;;;5109125;28;20031;-76
2022/05/15 07:43:15;;;;;;;13.98;5.25;;;19.40;99.90;;;;;;5108812;28;20066;-76
2022/05/15 07:45:41;;;;;;;15.25;5.63;;;19.50;99.90;;;;;;5108997;28;20039;-76
2022/05/15 07:48:07;;;;;;;16.02;5.13;;;19.70;99.90;;;;;;5108917;28;20028;-75
2022/05/15 07:50:35;;;;;;;18.88;5.47;;;19.70;99.90;;;;;;5107442;28;20024;-76
2022/05/15 07:53:01;;;;;;;20.30;5.72;;;19.80;99.90;;;;;;5108894;28;20136;-76
2022/05/15 07:55:28;;;;;;;20.38;5.10;;;19.90;99.90;;;;;;5108948;28;20375;-76
2022/05/15 07:57:53;;;;;;;18.83;5.85;;;20.00;99.90;;;;;;5098167;28;20395;-76
2022/05/15 08:00:19;;;;;;;12.95;4.93;;;20.10;99.90;;;;;;5095298;28;20032;-76
2022/05/15 08:02:45;;;;;;;15.85;5.15;;;20.10;99.90;;;;;;5093941;28;20055;-76
2022/05/15 08:08:01;;;;;;;19.40;5.32;;;20.20;99.90;;;;;;5090899;28;20031;-76
2022/05/15 08:10:38;;;;;;;15.07;5.40;;;20.50;99.90;;;;;;5096897;28;20020;-76
2022/05/15 08:13:05;;;;;;;13.98;5.25;;;20.60;99.90;;;;;;5099030;28;20107;-76
2022/05/15 08:15:32;;;;;;;15.55;5.35;;;20.60;99.90;;;;;;5098107;28;20026;-75
2022/05/15 08:23:37;;;;;;;14.18;4.03;;;20.90;99.90;;;;;;5061240;28;20097;-76
2022/05/15 08:26:06;;;;;;;13.68;5.13;;;20.90;99.90;;;;;;5073696;28;20055;-76
2022/05/15 08:28:33;;;;;;;18.50;5.57;;;21.00;99.90;;;;;;5075299;28;20127;-76
2022/05/15 08:30:58;;;;;;;11.70;4.38;;;21.20;99.90;;;;;;5078322;28;20024;-74
2022/05/15 08:33:26;;;;;;;16.73;4.68;;;21.80;99.90;;;;;;5070995;28;20368;-76
2022/05/15 08:35:51;;;;;;;16.88;4.90;;;21.60;99.90;;;;;;5072192;28;20068;-76
2022/05/15 08:38:18;;;;;;;14.77;5.53;;;21.80;99.90;;;;;;5072346;28;20662;-79
2022/05/15 08:41:00;;;;;;;18.50;5.13;;;22.00;99.90;;;;;;5070977;28;20029;-79
2022/05/15 08:43:46;;;;;;;15.30;5.40;;;22.00;99.90;;;;;;5070640;28;20033;-75
2022/05/15 08:46:32;;;;;;;14.63;4.28;;;22.10;99.90;;;;;;5066459;28;20603;-75
2022/05/15 08:49:17;;;;;;;12.60;5.03;;;21.90;99.90;;;;;;5055892;28;20032;-79
2022/05/15 08:51:52;;;;;;;19.27;5.13;;;21.80;99.90;;;;;;5071017;28;20032;-76
2022/05/15 08:54:17;;;;;;;14.75;4.95;;;22.40;99.40;;;;;;5071272;28;20596;-77
2022/05/15 08:56:49;;;;;;;15.30;4.55;;;22.70;98.90;;;;;;5073436;28;20111;-76
2022/05/15 08:59:31;;;;;;;17.30;5.35;;;22.70;98.90;;;;;;5092893;28;20100;-77
2022/05/15 09:01:59;;;;;;;13.23;5.22;;;23.00;97.80;;;;;;5093774;28;20039;-77
2022/05/15 09:04:26;;;;;;;18.40;4.88;;;22.90;98.10;;;;;;5093159;28;20059;-78
2022/05/15 09:07:29;;;;;;;18.05;4.50;;;23.00;97.50;;;;;;5093457;28;20069;-77
2022/05/15 09:10:13;;;;;;;13.43;5.00;;;23.40;96.50;;;;;;5030307;28;20046;-78
2022/05/15 09:12:43;;;;;;;13.68;4.65;;;23.30;96.90;;;;;;5031035;28;20113;-81
2022/05/15 09:15:22;;;;;;;19.08;5.13;;;23.40;96.20;;;;;;5030940;28;20131;-77
2022/05/15 09:18:02;;;;;;;17.20;5.57;;;23.70;95.60;;;;;;5011711;28;20026;-77
2022/05/15 09:20:47;;;;;;;17.92;5.43;;;23.70;95.60;;;;;;5023633;28;20493;-75
2022/05/15 09:23:49;;;;;;;14.95;4.60;;;23.60;95.50;;;;;;5030933;28;20053;-75
2022/05/15 09:26:22;;;;;;;20.45;4.38;;;23.50;96.40;;;;;;4953271;29;20459;-74
2022/05/15 09:28:54;;;;;;;18.73;4.93;;;23.70;95.00;;;;;;4951911;29;20027;-74
2022/05/15 09:31:25;;;;;;;13.55;4.22;;;23.80;94.90;;;;;;4951455;29;20031;-75
2022/05/15 09:34:21;;;;;;;14.18;4.57;;;24.10;94.10;;;;;;4956977;28;20443;-75
2022/05/15 09:36:49;;;;;;;23.92;4.30;;;24.60;93.40;;;;;;4940611;28;20037;-75
2022/05/15 09:39:25;;;;;;;16.50;4.40;;;24.10;93.40;;;;;;4952988;28;20026;-76
2022/05/15 09:45:18;;;;;;;15.57;4.90;;;24.20;93.40;;;;;;4945024;29;20102;-76
2022/05/15 09:47:53;;;;;;;17.70;5.07;;;24.70;92.90;;;;;;5004036;28;20084;-77
2022/05/15 09:50:55;;;;;;;17.23;4.90;;;24.40;92.80;;;;;;5029066;28;20080;-76
2022/05/15 09:53:28;;;;;;;18.95;4.70;;;24.80;92.20;;;;;;5024397;28;20706;-77
2022/05/15 09:55:58;;;;;;;16.52;4.22;;;24.30;93.00;;;;;;5021736;28;20100;-77
2022/05/15 09:58:24;;;;;;;14.65;4.43;;;24.80;92.60;;;;;;5028336;28;20069;-76
2022/05/15 10:00:49;;;;;;;18.23;4.40;;;24.60;91.90;;;;;;5025411;28;20110;-76
2022/05/15 10:03:21;;;;;;;13.85;4.47;;;24.40;92.60;;;;;;5097431;28;20028;-75
2022/05/15 10:05:57;;;;;;;21.13;4.50;;;24.60;92.60;;;;;;5088133;28;20040;-76
2022/05/15 10:08:26;;;;;;;14.35;4.47;;;24.60;92.30;;;;;;5090729;28;20081;-76
2022/05/15 10:11:02;;;;;;;16.30;5.35;;;25.10;92.10;;;;;;5091765;28;20494;-75
2022/05/15 10:13:37;;;;;;;15.95;4.40;;;24.90;91.90;;;;;;5091787;28;20073;-76
2022/05/15 10:16:17;;;;;;;15.77;4.07;;;24.90;91.50;;;;;;5090667;28;20036;-76
2022/05/15 10:18:58;;;;;;;14.57;4.10;;;24.40;92.00;;;;;;5085126;28;20575;-76
2022/05/15 10:21:28;;;;;;;17.90;4.68;;;24.40;92.00;;;;;;5091932;28;20024;-75
2022/05/15 10:23:59;;;;;;;20.42;4.25;;;24.40;91.90;;;;;;5090352;28;20044;-76
2022/05/15 10:26:46;;;;;;;536.92;332.17;;;24.70;90.90;;;;;;5091559;28;20106;-75
2022/05/15 10:29:38;;;;;;;76.88;40.20;;;25.20;90.20;;;;;;5092300;28;20128;-76
2022/05/15 10:32:13;;;;;;;20.98;7.45;;;25.50;87.60;;;;;;5089212;28;20028;-76
2022/05/15 10:35:58;;;;;;;20.48;7.80;;;25.50;88.20;;;;;;5136499;27;20645;-76
2022/05/15 10:38:50;;;;;;;16.38;4.60;;;25.90;86.40;;;;;;5128771;27;20043;-74
2022/05/15 10:41:35;;;;;;;14.20;4.95;;;25.90;87.10;;;;;;5128484;27;20405;-77
2022/05/15 10:44:20;;;;;;;18.48;4.57;;;26.00;86.70;;;;;;5125368;28;20479;-76
2022/05/15 10:46:48;;;;;;;18.05;4.50;;;26.20;86.10;;;;;;5127128;28;20042;-77
2022/05/15 10:49:37;;;;;;;17.83;4.10;;;25.80;85.40;;;;;;5128856;27;20123;-74
2022/05/15 10:52:31;;;;;;;15.52;3.78;;;25.00;85.40;;;;;;5114726;27;20043;-75
2022/05/15 10:58:31;;;;;;;16.02;4.07;;;25.10;84.60;;;;;;5125715;28;20058;-75
2022/05/15 11:01:17;;;;;;;12.55;4.00;;;24.80;84.90;;;;;;5128343;28;20452;-74
2022/05/15 11:03:55;;;;;;;17.80;3.97;;;24.40;85.60;;;;;;5126468;28;20070;-74
2022/05/15 11:06:48;;;;;;;16.65;4.13;;;24.60;85.40;;;;;;5108019;28;20106;-74
2022/05/15 11:09:19;;;;;;;17.67;4.22;;;25.40;85.40;;;;;;5103410;28;20103;-75
2022/05/15 11:11:52;;;;;;;10.43;3.70;;;25.30;85.00;;;;;;5104984;28;20035;-74
2022/05/15 11:14:36;;;;;;;9.80;3.90;;;25.50;85.40;;;;;;5108804;28;20024;-75
2022/05/15 11:17:05;;;;;;;21.00;4.35;;;25.80;83.20;;;;;;5107506;28;20048;-74
2022/05/15 11:19:44;;;;;;;14.45;4.20;;;26.00;81.90;;;;;;5108951;28;20023;-74
2022/05/15 11:22:31;;;;;;;10.55;3.67;;;25.60;80.60;;;;;;5107555;28;20449;-75
2022/05/15 11:25:15;;;;;;;13.95;3.65;;;25.60;81.00;;;;;;5106607;28;20032;-75
2022/05/15 11:27:49;;;;;;;30.42;4.38;;;25.80;80.30;;;;;;5107150;28;20034;-75
2022/05/15 11:30:31;;;;;;;14.32;3.40;;;26.00;78.30;;;;;;5089170;28;20577;-75
2022/05/15 11:33:03;;;;;;;18.42;3.13;;;25.90;79.00;;;;;;5107026;28;20032;-75
2022/05/15 11:35:35;;;;;;;12.63;3.83;;;26.20;78.30;;;;;;5107656;28;20051;-74
2022/05/15 11:38:03;;;;;;;7.85;3.85;;;25.50;79.30;;;;;;5106998;28;20052;-74
2022/05/15 11:40:45;;;;;;;12.90;2.92;;;25.90;79.00;;;;;;5107954;28;20020;-74
2022/05/15 11:43:26;;;;;;;12.77;3.47;;;25.60;77.90;;;;;;5108776;28;20039;-74
2022/05/15 11:45:54;;;;;;;22.60;3.47;;;25.80;78.70;;;;;;5101315;28;20108;-75
2022/05/15 11:48:29;;;;;;;10.20;3.28;;;26.40;78.70;;;;;;5097743;28;20045;-76
2022/05/15 11:51:01;;;;;;;10.75;3.85;;;26.30;78.40;;;;;;5093953;28;20024;-74
2022/05/15 11:54:07;;;;;;;12.68;3.20;;;26.40;77.10;;;;;;5094421;28;20081;-75
2022/05/15 11:56:53;;;;;;;12.65;2.88;;;25.90;75.80;;;;;;5079000;28;20036;-75
2022/05/15 11:59:27;;;;;;;15.13;3.85;;;26.10;76.30;;;;;;5089921;28;20078;-78
2022/05/15 12:01:56;;;;;;;12.98;4.32;;;26.50;76.00;;;;;;5104453;28;20027;-77
2022/05/15 12:04:34;;;;;;;13.20;3.42;;;26.80;76.00;;;;;;5094851;28;20020;-77
2022/05/15 12:06:59;;;;;;;10.43;3.22;;;26.80;73.60;;;;;;5094488;28;20093;-77
2022/05/15 12:09:27;;;;;;;16.02;3.70;;;26.70;73.50;;;;;;5099950;28;20024;-77
2022/05/15 12:11:59;;;;;;;18.38;4.28;;;26.70;73.10;;;;;;5093885;28;20044;-77
2022/05/15 12:14:28;;;;;;;;;;;26.20;73.50;;;;;;5095426;28;20038;-77
2022/05/15 12:17:24;;;;;;;15.93;3.30;;;25.70;75.90;;;;;;5102553;28;20359;-77
2022/05/15 12:19:59;;;;;;;17.50;3.63;;;25.70;75.80;;;;;;5080501;28;20028;-77
2022/05/15 12:22:25;;;;;;;13.80;3.60;;;25.50;76.70;;;;;;5094382;28;20024;-76
2022/05/15 12:24:50;;;;;;;20.15;3.30;;;25.50;75.90;;;;;;5094325;28;20107;-77
2022/05/15 12:27:27;;;;;;;13.43;3.35;;;25.80;76.00;;;;;;5093703;28;20388;-77
2022/05/15 12:30:08;;;;;;;22.10;4.50;;;25.50;75.80;;;;;;5094327;28;20551;-77
2022/05/15 12:32:38;;;;;;;15.00;3.75;;;25.10;76.30;;;;;;5094031;28;20059;-77
2022/05/15 12:35:10;;;;;;;11.60;3.15;;;25.50;76.40;;;;;;5092788;28;20400;-77
2022/05/15 12:37:52;;;;;;;13.32;2.58;;;25.90;75.40;;;;;;5094417;28;20031;-77
2022/05/15 12:40:24;;;;;;;13.23;3.33;;;26.00;75.90;;;;;;5103174;28;20016;-76
2022/05/15 12:42:50;;;;;;;12.10;3.60;;;26.30;75.00;;;;;;5098265;28;20031;-79
2022/05/15 12:45:20;;;;;;;14.18;3.50;;;25.60;75.00;;;;;;5100299;28;20099;-75
2022/05/15 12:48:10;;;;;;;18.30;2.88;;;25.20;76.00;;;;;;5087293;28;20115;-75
2022/05/15 12:51:06;;;;;;;19.10;3.85;;;25.00;76.00;;;;;;5086582;28;20024;-75
2022/05/15 12:53:36;;;;;;;18.42;3.75;;;24.80;76.00;;;;;;5098536;28;20062;-75
2022/05/15 12:56:29;;;;;;;18.98;3.63;;;25.20;75.10;;;;;;5093335;28;20020;-75
2022/05/15 12:59:11;;;;;;;14.50;3.50;;;25.00;75.40;;;;;;5093116;28;20031;-75
2022/05/15 13:01:37;;;;;;;24.42;3.40;;;25.30;74.90;;;;;;5073968;28;20539;-74
2022/05/15 13:04:05;;;;;;;21.20;3.15;;;25.50;74.80;;;;;;5076217;28;20031;-76
2022/05/15 13:06:41;;;;;;;22.30;3.70;;;25.50;74.70;;;;;;5093106;28;20563;-76
2022/05/15 13:09:10;;;;;;;25.85;3.88;;;25.60;74.60;;;;;;5094248;28;20031;-75
2022/05/15 13:11:41;;;;;;;11.65;3.13;;;26.00;74.90;;;;;;5095982;28;20093;-75
2022/05/15 13:14:17;;;;;;;12.75;3.17;;;26.00;74.10;;;;;;5093363;28;20043;-75
2022/05/15 13:16:46;;;;;;;14.38;3.47;;;26.20;73.90;;;;;;5089483;28;20028;-75
2022/05/15 13:19:15;;;;;;;12.25;3.53;;;26.00;73.40;;;;;;5097424;28;20026;-75
2022/05/15 13:21:46;;;;;;;12.90;3.17;;;26.20;74.20;;;;;;5092492;28;20062;-75
2022/05/15 13:24:14;;;;;;;7.90;2.88;;;26.70;73.50;;;;;;5095347;28;20391;-77
2022/05/15 13:26:44;;;;;;;13.15;3.25;;;26.60;72.40;;;;;;5097886;28;20020;-75
2022/05/15 13:29:14;;;;;;;13.93;3.40;;;26.60;72.00;;;;;;5092750;28;20024;-76
2022/05/15 13:31:41;;;;;;;13.40;3.65;;;26.50;72.00;;;;;;5093430;28;20020;-76
2022/05/15 13:34:11;;;;;;;11.10;3.20;;;26.50;72.40;;;;;;5092685;28;20101;-76
2022/05/15 13:36:37;;;;;;;14.15;3.80;;;26.40;73.10;;;;;;5092916;28;20059;-76
2022/05/15 13:44:35;;;;;;;11.57;3.15;;;26.80;70.80;;;;;;5093122;28;20067;-75
2022/05/15 13:47:14;;;;;;;19.75;3.55;;;26.70;70.50;;;;;;5092443;28;20032;-75
2022/05/15 13:49:52;;;;;;;11.20;3.03;;;26.60;69.90;;;;;;5092976;28;20455;-76
2022/05/15 13:52:27;;;;;;;11.68;3.08;;;26.80;70.30;;;;;;5072619;28;20020;-75
2022/05/15 13:54:53;;;;;;;7.68;2.58;;;26.90;70.40;;;;;;5090188;28;20497;-76
2022/05/15 13:57:19;;;;;;;10.32;3.00;;;26.80;68.30;;;;;;5102342;28;20409;-76
2022/05/15 13:59:50;;;;;;;10.88;3.13;;;26.70;69.30;;;;;;5100117;28;20032;-76
2022/05/15 14:02:31;;;;;;;9.55;3.00;;;26.80;68.40;;;;;;5094746;28;20069;-76
2022/05/15 14:04:57;;;;;;;9.48;3.30;;;26.70;69.30;;;;;;5084425;28;20067;-76
2022/05/15 14:07:35;;;;;;;13.35;3.25;;;26.70;69.80;;;;;;5091081;28;20052;-76
2022/05/15 14:10:19;;;;;;;15.38;3.53;;;26.40;69.30;;;;;;5088455;28;20028;-76
2022/05/15 14:12:48;;;;;;;10.30;2.70;;;26.30;69.80;;;;;;5090533;28;20491;-76
2022/05/15 14:15:35;;;;;;;23.42;4.50;;;26.20;69.80;;;;;;5096852;28;20028;-75
2022/05/15 14:18:22;;;;;;;13.20;3.67;;;26.30;70.10;;;;;;5092233;28;20024;-77
2022/05/15 14:20:50;;;;;;;9.30;3.28;;;26.20;69.40;;;;;;5089497;28;20028;-76
2022/05/15 14:23:18;;;;;;;12.90;3.13;;;26.30;70.10;;;;;;5089774;28;20024;-76
2022/05/15 14:25:45;;;;;;;10.07;2.95;;;26.50;69.30;;;;;;5090587;28;20020;-75
2022/05/15 14:28:13;;;;;;;11.18;3.30;;;26.40;69.70;;;;;;5090881;28;20032;-76
2022/05/15 14:30:41;;;;;;;17.27;3.05;;;26.30;70.00;;;;;;5091121;28;20035;-76
2022/05/15 14:33:08;;;;;;;12.88;3.67;;;26.50;70.70;;;;;;5089784;28;20043;-75
2022/05/15 14:35:40;;;;;;;12.55;3.38;;;26.50;71.40;;;;;;5091086;28;20056;-75
2022/05/15 14:38:06;;;;;;;13.00;3.95;;;26.50;71.10;;;;;;5088592;28;20021;-76
2022/05/15 14:40:32;;;;;;;14.40;3.33;;;26.50;70.30;;;;;;5091113;28;20012;-76
2022/05/15 14:42:59;;;;;;;16.77;3.55;;;26.40;71.20;;;;;;5090582;28;20031;-75
2022/05/15 14:45:26;;;;;;;12.65;2.80;;;26.40;72.40;;;;;;5091017;28;20020;-76
2022/05/15 14:47:59;;;;;;;14.77;3.20;;;26.30;72.30;;;;;;5088908;28;20040;-76
2022/05/15 14:50:26;;;;;;;13.10;3.20;;;26.00;71.70;;;;;;5092488;28;20054;-76
2022/05/15 14:52:54;;;;;;;9.60;3.45;;;25.70;72.30;;;;;;5091996;28;20387;-75
2022/05/15 14:56:07;;;;;;;14.98;3.50;;;25.80;72.30;;;;;;5090359;28;20028;-75
2022/05/15 14:58:13;;;;;;;13.75;3.03;;;25.90;71.30;;;;;;5090409;28;20040;-76
2022/05/15 15:00:39;;;;;;;16.48;3.55;;;25.90;71.10;;;;;;5090803;28;20028;-75
2022/05/15 15:03:05;;;;;;;18.70;3.83;;;25.70;70.70;;;;;;5090865;28;20016;-76
2022/05/15 15:05:44;;;;;;;14.63;3.92;;;25.50;71.80;;;;;;5090683;28;20480;-76
2022/05/15 15:08:22;;;;;;;14.65;3.00;;;25.50;71.70;;;;;;5090465;28;20024;-77
2022/05/15 15:10:49;;;;;;;9.68;2.97;;;25.40;72.50;;;;;;5088382;28;20079;-76
2022/05/15 15:13:16;;;;;;;12.27;2.80;;;25.20;73.00;;;;;;5076240;28;20418;-77
2022/05/15 15:15:45;;;;;;;16.23;3.65;;;25.10;72.60;;;;;;5074079;28;20049;-78
2022/05/15 15:18:11;;;;;;;18.25;3.72;;;24.90;72.80;;;;;;5094186;28;20012;-77
2022/05/15 15:20:40;;;;;;;15.18;3.45;;;24.70;73.30;;;;;;5101528;28;20032;-77
2022/05/15 15:23:06;;;;;;;17.33;3.35;;;24.40;73.90;;;;;;5085494;28;20367;-77
2022/05/15 15:25:31;;;;;;;8.63;2.90;;;24.20;74.70;;;;;;5115906;28;20028;-77
2022/05/15 15:27:57;;;;;;;20.67;3.83;;;24.20;75.10;;;;;;5116460;28;20471;-77
2022/05/15 15:30:23;;;;;;;13.60;3.35;;;24.20;75.10;;;;;;5116595;28;20027;-77
2022/05/15 15:32:49;;;;;;;8.45;2.95;;;24.30;74.70;;;;;;5098098;28;20023;-78
2022/05/15 15:35:15;;;;;;;11.48;3.00;;;24.80;74.50;;;;;;5095051;28;20063;-77
2022/05/15 15:40:28;;;;;;;14.82;3.38;;;25.30;73.20;;;;;;5102729;28;20134;-77
2022/05/15 15:42:54;;;;;;;14.70;4.30;;;25.60;73.60;;;;;;5105139;28;20015;-77
2022/05/15 15:45:20;;;;;;;15.55;3.50;;;25.50;73.10;;;;;;5095789;28;20028;-77
2022/05/15 15:47:46;;;;;;;12.60;3.00;;;25.20;74.20;;;;;;5095564;28;20028;-77
2022/05/15 15:50:12;;;;;;;12.57;3.25;;;25.00;73.70;;;;;;5095577;28;20032;-77
2022/05/15 15:52:40;;;;;;;9.60;3.13;;;25.10;73.40;;;;;;5095350;28;20091;-77
2022/05/15 15:55:10;;;;;;;11.23;3.50;;;25.10;72.90;;;;;;5095461;28;20051;-78
2022/05/15 15:57:37;;;;;;;12.38;3.00;;;25.00;73.50;;;;;;5095905;28;20023;-77
2022/05/15 16:00:07;;;;;;;12.00;3.05;;;24.90;73.90;;;;;;5113248;28;20084;-78
2022/05/15 16:02:32;;;;;;;13.43;3.88;;;25.10;74.40;;;;;;5095457;28;20020;-77
2022/05/15 16:04:58;;;;;;;13.88;3.22;;;25.10;75.00;;;;;;5094573;28;20451;-77
2022/05/15 16:07:24;;;;;;;13.75;4.13;;;25.00;74.30;;;;;;5093253;28;20028;-76
2022/05/15 16:09:50;;;;;;;10.88;3.42;;;25.20;74.70;;;;;;5093797;28;20028;-76
2022/05/15 16:12:16;;;;;;;10.50;3.10;;;25.20;74.40;;;;;;5094459;28;20020;-76
2022/05/15 16:14:41;;;;;;;11.10;3.60;;;25.20;74.60;;;;;;5094672;28;20081;-77
2022/05/15 16:17:08;;;;;;;9.63;3.03;;;25.10;74.10;;;;;;5094868;28;20024;-77
2022/05/15 16:19:33;;;;;;;12.15;3.67;;;25.00;74.10;;;;;;5109713;28;20027;-77
2022/05/15 16:21:59;;;;;;;11.40;3.13;;;24.80;74.00;;;;;;5115171;28;20011;-76
2022/05/15 16:24:29;;;;;;;18.55;4.35;;;24.80;74.20;;;;;;5097680;28;20031;-76
2022/05/15 16:26:58;;;;;;;15.20;3.50;;;24.90;74.00;;;;;;5105856;28;20027;-77
2022/05/15 16:29:25;;;;;;;17.30;3.33;;;24.90;74.10;;;;;;5110592;28;20103;-77
2022/05/15 16:31:51;;;;;;;20.80;4.15;;;24.90;74.00;;;;;;5103963;28;20020;-78
2022/05/15 16:34:17;;;;;;;15.35;3.90;;;24.80;74.30;;;;;;5108626;28;20048;-76
2022/05/15 16:36:43;;;;;;;19.85;3.28;;;24.80;74.20;;;;;;5094451;28;20030;-76
2022/05/15 16:39:08;;;;;;;9.00;3.33;;;24.70;74.20;;;;;;5093442;28;20066;-76
2022/05/15 16:41:34;;;;;;;20.85;3.75;;;24.70;74.10;;;;;;5075608;28;20020;-77
2022/05/15 16:43:59;;;;;;;16.23;3.38;;;24.60;74.20;;;;;;5094000;28;20090;-76
2022/05/15 16:46:25;;;;;;;9.10;3.08;;;24.70;73.60;;;;;;5097118;28;20058;-77
2022/05/15 16:48:51;;;;;;;16.27;3.58;;;24.50;73.20;;;;;;5094528;28;20476;-77
2022/05/15 16:51:17;;;;;;;12.25;3.75;;;24.50;73.80;;;;;;5094424;28;20090;-77
2022/05/15 16:53:44;;;;;;;13.88;3.30;;;24.60;73.50;;;;;;5092482;28;20020;-77
2022/05/15 16:56:09;;;;;;;10.07;3.25;;;24.50;73.40;;;;;;5082393;28;20044;-76
2022/05/15 16:58:35;;;;;;;14.98;3.83;;;24.40;73.00;;;;;;5087535;28;20059;-76
2022/05/15 17:01:02;;;;;;;24.30;3.50;;;24.40;72.60;;;;;;5092144;28;20443;-77
2022/05/15 17:03:29;;;;;;;37.60;4.25;;;24.40;72.40;;;;;;5095688;28;20103;-76
2022/05/15 17:05:54;;;;;;;22.00;3.53;;;24.20;72.50;;;;;;5093639;28;20507;-76
2022/05/15 17:08:20;;;;;;;16.08;3.38;;;24.10;72.60;;;;;;5093343;28;20080;-77
2022/05/15 17:10:46;;;;;;;15.15;3.17;;;24.10;72.40;;;;;;5095996;28;20383;-75
2022/05/15 17:13:13;;;;;;;16.08;3.53;;;24.10;72.50;;;;;;5092195;28;20057;-76
2022/05/15 17:15:39;;;;;;;17.35;3.38;;;24.10;73.00;;;;;;5098613;28;20532;-76
2022/05/15 17:18:06;;;;;;;19.65;3.08;;;24.20;73.50;;;;;;5096221;28;20073;-76
2022/05/15 17:20:33;;;;;;;13.77;3.55;;;24.20;74.10;;;;;;5094796;28;20664;-76
2022/05/15 17:22:59;;;;;;;11.50;2.95;;;24.20;73.90;;;;;;5092856;28;20012;-76
2022/05/15 17:25:31;;;;;;;11.70;3.22;;;24.20;74.40;;;;;;5096545;28;20103;-76
2022/05/15 17:28:00;;;;;;;16.10;3.50;;;24.00;74.10;;;;;;5092802;28;20479;-76
2022/05/15 17:35:49;;;;;;;12.95;3.97;;;23.50;75.20;;;;;;5087490;28;20047;-76
2022/05/15 17:38:15;;;;;;;14.63;3.42;;;23.40;75.20;;;;;;5097927;28;20016;-78
2022/05/15 17:40:43;;;;;;;13.70;3.65;;;23.20;75.50;;;;;;5097900;28;20016;-76
2022/05/15 17:43:08;;;;;;;14.75;3.90;;;23.20;75.60;;;;;;5095070;28;20015;-76
2022/05/15 17:45:35;;;;;;;12.18;4.00;;;23.10;75.90;;;;;;5092085;28;20032;-76
2022/05/15 17:48:02;;;;;;;13.07;3.90;;;22.90;76.20;;;;;;5101065;28;20031;-76
2022/05/15 17:50:30;;;;;;;10.55;3.42;;;22.80;76.80;;;;;;5076995;28;20055;-74
2022/05/15 17:52:56;;;;;;;12.52;3.40;;;22.80;76.80;;;;;;5092573;28;20028;-74
2022/05/15 17:55:23;;;;;;;14.63;3.60;;;22.80;76.50;;;;;;5092455;28;20063;-73
2022/05/15 17:57:51;;;;;;;9.52;3.20;;;22.60;77.10;;;;;;5092523;28;20371;-73
2022/05/15 18:00:22;;;;;;;22.08;4.32;;;22.60;77.40;;;;;;5087657;28;20012;-73
2022/05/15 18:02:47;;;;;;;13.77;3.83;;;22.50;77.80;;;;;;5091228;28;20109;-73
2022/05/15 18:05:13;;;;;;;13.35;3.75;;;22.60;78.00;;;;;;5091666;28;20491;-73
2022/05/15 18:07:39;;;;;;;18.00;4.03;;;22.50;78.40;;;;;;5091932;28;20569;-75
2022/05/15 18:10:06;;;;;;;19.77;4.15;;;22.40;78.90;;;;;;5090438;28;20487;-74
2022/05/15 18:12:33;;;;;;;14.23;3.65;;;22.30;79.20;;;;;;5091071;28;20030;-75
2022/05/15 18:14:59;;;;;;;11.68;3.63;;;22.30;79.50;;;;;;5090646;28;20024;-74
2022/05/15 18:17:25;;;;;;;13.50;3.45;;;22.20;80.20;;;;;;5090848;28;20424;-74
2022/05/15 18:19:51;;;;;;;13.80;3.60;;;22.10;80.50;;;;;;5072987;28;20183;-74
2022/05/15 18:22:17;;;;;;;17.05;3.60;;;22.10;80.60;;;;;;5089986;28;20024;-75
2022/05/15 18:24:43;;;;;;;14.55;4.25;;;22.00;81.00;;;;;;5090584;28;20035;-72
2022/05/15 18:27:10;;;;;;;12.85;3.75;;;22.00;81.20;;;;;;5090863;28;20020;-71
2022/05/15 18:29:35;;;;;;;10.00;3.67;;;21.90;81.60;;;;;;5095301;28;20012;-76
2022/05/15 18:32:01;;;;;;;19.63;3.78;;;21.80;81.90;;;;;;5072949;28;20115;-72
2022/05/15 18:34:27;;;;;;;11.10;3.25;;;21.80;81.80;;;;;;5090687;28;20047;-72
2022/05/15 18:36:53;;;;;;;12.35;3.63;;;21.80;81.90;;;;;;5090539;28;20103;-72
2022/05/15 18:39:19;;;;;;;13.40;4.07;;;21.60;82.00;;;;;;5091046;28;20484;-72
2022/05/15 18:42:06;;;;;;;15.40;3.63;;;21.50;82.20;;;;;;5090499;28;20029;-72
2022/05/15 18:44:34;;;;;;;11.68;3.30;;;21.40;82.90;;;;;;5089576;28;20414;-73
2022/05/15 18:47:01;;;;;;;11.23;3.17;;;21.30;83.40;;;;;;5086866;28;20021;-73
2022/05/15 18:49:27;;;;;;;10.60;3.53;;;21.00;84.50;;;;;;5091077;28;20028;-72
2022/05/15 18:54:56;;;;;;;13.55;3.80;;;20.90;85.40;;;;;;5090884;28;20043;-73
2022/05/15 18:57:31;;;;;;;18.70;4.57;;;20.80;85.90;;;;;;5090861;28;20024;-73
2022/05/15 18:59:57;;;;;;;21.90;3.80;;;20.60;86.30;;;;;;5094804;28;20472;-73
2022/05/15 19:02:25;;;;;;;19.45;4.65;;;20.60;87.00;;;;;;5094545;28;20035;-73
2022/05/15 19:04:51;;;;;;;13.52;4.07;;;20.60;87.10;;;;;;5094244;28;20025;-73
2022/05/15 19:07:17;;;;;;;13.55;3.85;;;20.60;87.60;;;;;;5093343;28;20028;-76
2022/05/15 19:09:43;;;;;;;15.07;3.85;;;20.50;87.50;;;;;;5094704;28;20027;-73
2022/05/15 19:12:10;;;;;;;12.48;3.70;;;20.50;88.00;;;;;;5097522;28;20576;-75
2022/05/15 19:14:36;;;;;;;18.65;4.82;;;20.50;87.50;;;;;;5095778;28;20444;-72
2022/05/15 19:17:03;;;;;;;14.15;3.63;;;20.20;88.60;;;;;;5093761;28;20028;-72
2022/05/15 19:19:29;;;;;;;16.25;4.00;;;20.30;88.70;;;;;;5093128;28;20012;-73
2022/05/15 19:21:55;;;;;;;11.65;3.85;;;20.20;89.10;;;;;;5094795;28;20043;-73
2022/05/15 19:24:22;;;;;;;19.65;4.43;;;20.10;89.40;;;;;;5093790;28;20098;-72
2022/05/15 19:26:48;;;;;;;19.20;4.65;;;20.10;89.40;;;;;;5097847;28;20406;-72
2022/05/15 19:29:15;;;;;;;13.15;4.03;;;20.10;89.60;;;;;;5102834;28;20253;-72
2022/05/15 19:31:42;;;;;;;12.32;3.70;;;20.00;89.90;;;;;;5098782;28;20427;-72
2022/05/15 19:34:08;;;;;;;11.32;3.95;;;19.90;89.50;;;;;;5094150;28;20040;-72
2022/05/15 19:36:35;;;;;;;15.52;4.00;;;20.00;89.60;;;;;;5101895;28;20038;-72
2022/05/15 19:39:01;;;;;;;12.52;3.65;;;19.90;89.30;;;;;;5094209;28;20023;-72
2022/05/15 19:41:26;;;;;;;19.30;3.95;;;19.80;89.60;;;;;;5094521;28;20032;-72
2022/05/15 19:43:53;;;;;;;14.18;3.75;;;19.90;89.60;;;;;;5094205;28;20095;-72
2022/05/15 19:46:19;;;;;;;15.73;3.83;;;19.70;89.80;;;;;;5094811;28;20024;-72
2022/05/15 19:48:46;;;;;;;18.33;3.65;;;19.80;89.80;;;;;;5094762;28;20012;-72
2022/05/15 19:51:13;;;;;;;17.13;4.18;;;19.70;89.60;;;;;;5094045;28;20054;-72
2022/05/15 19:53:39;;;;;;;11.50;3.70;;;19.60;90.10;;;;;;5094387;28;20013;-72
2022/05/15 19:56:24;;;;;;;17.05;4.05;;;19.60;90.00;;;;;;5094310;28;20049;-72
2022/05/15 19:58:50;;;;;;;18.75;4.35;;;19.60;90.00;;;;;;5094865;28;20439;-72
2022/05/15 20:01:15;;;;;;;16.60;3.75;;;19.60;90.10;;;;;;5075829;28;20060;-72
2022/05/15 20:03:41;;;;;;;16.17;3.58;;;19.50;90.40;;;;;;5108966;28;20035;-72
2022/05/15 20:11:36;;;;;;;15.18;3.65;;;19.40;90.80;;;;;;5114125;28;20049;-72
2022/05/15 20:14:08;;;;;;;14.25;3.53;;;19.30;91.10;;;;;;5114897;28;20055;-72
2022/05/15 20:16:36;;;;;;;13.82;4.30;;;19.30;91.30;;;;;;5102893;28;20047;-72
2022/05/15 20:19:02;;;;;;;15.63;3.83;;;19.20;91.20;;;;;;5093969;28;20395;-72
2022/05/15 20:21:28;;;;;;;15.25;4.38;;;19.30;91.30;;;;;;5094207;28;20020;-72
2022/05/15 20:23:54;;;;;;;16.98;3.83;;;19.30;91.40;;;;;;5093490;28;20031;-72